sensor_id;sensor_type;location;lat;lon;timestamp;temperature;humidity
26952;DHT22;14507;52.418;13.398;2023-07-20T00:02:12;18.20;99.90
26952;DHT22;14507;52.418;13.398;2023-07-20T00:04:38;18.20;99.90
26952;DHT22;14507;52.418;13.398;2023-07-20T00:07:03;18.20;99.90
26952;DHT22;14507;52.418;13.398;2023-07-20T00:09:29;18.20;99.90
26952;DHT22;14507;52.418;13.398;2023-07-20T00:11:54;18.20;99.90
26952;DHT22;14507;52.418;13.398;2023-07-20T00:14:20;18.20;99.90
26952;DHT22;14507;52.418;13.398;2023-07-20T00:16:46;18.20;99.90
26952;DHT22;14507;52.418;13.398;2023-07-20T00:19:12;18.10;99.90
26952;DHT22;14507;52.418;13.398;2023-07-20T00:21:38;18.10;99.90
26952;DHT22;14507;52.418;13.398;2023-07-20T00:24:06;18.10;99.90
26952;DHT22;14507;52.418;13.398;2023-07-20T00:26:31;18.10;99.90
26952;DHT22;14507;52.418;13.398;2023-07-20T00:28:57;18.10;99.90
26952;DHT22;14507;52.418;13.398;2023-07-20T00:31:22;18.10;99.90
26952;DHT22;14507;52.418;13.398;2023-07-20T00:33:48;18.00;99.90
26952;DHT22;14507;52.418;13.398;2023-07-20T00:36:14;18.00;99.90
26952;DHT22;14507;52.418;13.398;2023-07-20T00:38:39;18.00;99.90
26952;DHT22;14507;52.418;13.398;2023-07-20T00:41:06;18.00;99.90
26952;DHT22;14507;52.418;13.398;2023-07-20T00:43:31;18.00;99.90
26952;DHT22;14507;52.418;13.398;2023-07-20T00:45:57;18.00;99.90
26952;DHT22;14507;52.418;13.398;2023-07-20T00:48:22;18.00;99.90
26952;DHT22;14507;52.418;13.398;2023-07-20T00:50:48;18.00;99.90
26952;DHT22;14507;52.418;13.398;2023-07-20T00:53:14;18.00;99.90
26952;DHT22;14507;52.418;13.398;2023-07-20T00:55:39;17.90;99.90
26952;DHT22;14507;52.418;13.398;2023-07-20T00:58:05;17.90;99.90
26952;DHT22;14507;52.418;13.398;2023-07-20T01:00:31;17.90;99.90
26952;DHT22;14507;52.418;13.398;2023-07-20T01:02:56;17.90;99.90
26952;DHT22;14507;52.418;13.398;2023-07-20T01:05:22;17.80;99.90
26952;DHT22;14507;52.418;13.398;2023-07-20T01:08:02;17.80;99.90
26952;DHT22;14507;52.418;13.398;2023-07-20T01:10:36;17.80;99.90
26952;DHT22;14507;52.418;13.398;2023-07-20T01:13:05;17.80;99.90
26952;DHT22;14507;52.418;13.398;2023-07-20T01:15:33;17.70;99.90
26952;DHT22;14507;52.418;13.398;2023-07-20T01:17:59;17.70;99.90
26952;DHT22;14507;52.418;13.398;2023-07-20T01:20:26;17.70;99.90
26952;DHT22;14507;52.418;13.398;2023-07-20T01:25:45;17.70;99.90
26952;DHT22;14507;52.418;13.398;2023-07-20T01:30:59;17.60;99.90
26952;DHT22;14507;52.418;13.398;2023-07-20T01:33:28;17.60;99.90
26952;DHT22;14507;52.418;13.398;2023-07-20T01:35:56;17.60;99.90
26952;DHT22;14507;52.418;13.398;2023-07-20T01:38:22;17.60;99.90
26952;DHT22;14507;52.418;13.398;2023-07-20T01:40:49;17.50;99.90
26952;DHT22;14507;52.418;13.398;2023-07-20T01:43:15;17.50;99.90
26952;DHT22;14507;52.418;13.398;2023-07-20T01:45:41;17.50;99.90
26952;DHT22;14507;52.418;13.398;2023-07-20T01:48:06;17.60;99.90
26952;DHT22;14507;52.418;13.398;2023-07-20T01:50:32;17.50;99.90
26952;DHT22;14507;52.418;13.398;2023-07-20T01:53:00;17.50;99.90
26952;DHT22;14507;52.418;13.398;2023-07-20T01:55:25;17.50;99.90
26952;DHT22;14507;52.418;13.398;2023-07-20T01:57:51;17.50;99.90
26952;DHT22;14507;52.418;13.398;2023-07-20T02:00:16;17.50;99.90
26952;DHT22;14507;52.418;13.398;2023-07-20T02:02:44;17.50;99.90
26952;DHT22;14507;52.418;13.398;2023-07-20T02:05:09;17.40;99.90
26952;DHT22;14507;52.418;13.398;2023-07-20T02:07:35;17.40;99.90
26952;DHT22;14507;52.418;13.398;2023-07-20T02:10:00;17.40;99.90
26952;DHT22;14507;52.418;13.398;2023-07-20T02:12:26;17.40;99.90
26952;DHT22;14507;52.418;13.398;2023-07-20T02:14:51;17.40;99.90
26952;DHT22;14507;52.418;13.398;2023-07-20T02:17:18;17.40;99.90
26952;DHT22;14507;52.418;13.398;2023-07-20T02:19:43;17.30;99.90
26952;DHT22;14507;52.418;13.398;2023-07-20T02:22:09;17.30;99.90
26952;DHT22;14507;52.418;13.398;2023-07-20T02:24:35;17.30;99.90
26952;DHT22;14507;52.418;13.398;2023-07-20T02:27:00;17.30;99.90
26952;DHT22;14507;52.418;13.398;2023-07-20T02:29:26;17.30;99.90
26952;DHT22;14507;52.418;13.398;2023-07-20T02:31:51;17.30;99.90
26952;DHT22;14507;52.418;13.398;2023-07-20T02:34:17;17.30;99.90
26952;DHT22;14507;52.418;13.398;2023-07-20T02:36:42;17.20;99.90
26952;DHT22;14507;52.418;13.398;2023-07-20T02:39:08;17.20;99.90
26952;DHT22;14507;52.418;13.398;2023-07-20T02:41:34;17.10;99.90
26952;DHT22;14507;52.418;13.398;2023-07-20T02:43:59;17.10;99.90
26952;DHT22;14507;52.418;13.398;2023-07-20T02:46:25;17.10;99.90
26952;DHT22;14507;52.418;13.398;2023-07-20T02:48:51;17.10;99.90
26952;DHT22;14507;52.418;13.398;2023-07-20T02:51:16;17.00;99.90
26952;DHT22;14507;52.418;13.398;2023-07-20T02:53:42;17.00;99.90
26952;DHT22;14507;52.418;13.398;2023-07-20T02:56:07;17.00;99.90
26952;DHT22;14507;52.418;13.398;2023-07-20T02:58:34;17.00;99.90
26952;DHT22;14507;52.418;13.398;2023-07-20T03:01:02;17.10;99.90
26952;DHT22;14507;52.418;13.398;2023-07-20T03:03:27;17.10;99.90
26952;DHT22;14507;52.418;13.398;2023-07-20T03:05:53;17.00;99.90
26952;DHT22;14507;52.418;13.398;2023-07-20T03:08:21;17.10;99.90
26952;DHT22;14507;52.418;13.398;2023-07-20T03:10:47;17.00;99.90
26952;DHT22;14507;52.418;13.398;2023-07-20T03:13:12;17.10;99.90
26952;DHT22;14507;52.418;13.398;2023-07-20T03:15:39;17.10;99.90
26952;DHT22;14507;52.418;13.398;2023-07-20T03:18:05;17.10;99.90
26952;DHT22;14507;52.418;13.398;2023-07-20T03:20:30;17.10;99.90
26952;DHT22;14507;52.418;13.398;2023-07-20T03:22:56;17.00;99.90
26952;DHT22;14507;52.418;13.398;2023-07-20T03:25:22;17.00;99.90
26952;DHT22;14507;52.418;13.398;2023-07-20T03:27:47;17.00;99.90
26952;DHT22;14507;52.418;13.398;2023-07-20T03:30:13;17.00;99.90
26952;DHT22;14507;52.418;13.398;2023-07-20T03:32:38;17.00;99.90
26952;DHT22;14507;52.418;13.398;2023-07-20T03:35:04;17.00;99.90
26952;DHT22;14507;52.418;13.398;2023-07-20T03:37:30;17.00;99.90
26952;DHT22;14507;52.418;13.398;2023-07-20T03:39:55;17.00;99.90
26952;DHT22;14507;52.418;13.398;2023-07-20T03:42:21;17.00;99.90
26952;DHT22;14507;52.418;13.398;2023-07-20T03:44:46;17.00;99.90
26952;DHT22;14507;52.418;13.398;2023-07-20T03:47:12;17.00;99.90
26952;DHT22;14507;52.418;13.398;2023-07-20T03:49:37;17.00;99.90
26952;DHT22;14507;52.418;13.398;2023-07-20T03:52:03;17.00;99.90
26952;DHT22;14507;52.418;13.398;2023-07-20T03:54:28;16.90;99.90
26952;DHT22;14507;52.418;13.398;2023-07-20T03:56:54;17.00;99.90
26952;DHT22;14507;52.418;13.398;2023-07-20T03:59:20;17.00;99.90
26952;DHT22;14507;52.418;13.398;2023-07-20T04:01:45;17.00;99.90
26952;DHT22;14507;52.418;13.398;2023-07-20T04:04:11;17.00;99.90
26952;DHT22;14507;52.418;13.398;2023-07-20T04:06:37;17.00;99.90
26952;DHT22;14507;52.418;13.398;2023-07-20T04:09:03;17.00;99.90
26952;DHT22;14507;52.418;13.398;2023-07-20T04:11:30;17.10;99.90
26952;DHT22;14507;52.418;13.398;2023-07-20T04:13:55;17.10;99.90
26952;DHT22;14507;52.418;13.398;2023-07-20T04:16:21;17.10;99.90
26952;DHT22;14507;52.418;13.398;2023-07-20T04:18:47;17.10;99.90
26952;DHT22;14507;52.418;13.398;2023-07-20T04:21:12;17.20;99.90
26952;DHT22;14507;52.418;13.398;2023-07-20T04:23:38;17.20;99.90
26952;DHT22;14507;52.418;13.398;2023-07-20T04:26:03;17.20;99.90
26952;DHT22;14507;52.418;13.398;2023-07-20T04:28:29;17.20;99.90
26952;DHT22;14507;52.418;13.398;2023-07-20T04:30:58;17.20;99.90
26952;DHT22;14507;52.418;13.398;2023-07-20T04:33:34;17.30;99.90
26952;DHT22;14507;52.418;13.398;2023-07-20T04:35:59;17.30;99.90
26952;DHT22;14507;52.418;13.398;2023-07-20T04:38:25;17.30;99.90
26952;DHT22;14507;52.418;13.398;2023-07-20T04:40:51;17.30;99.90
26952;DHT22;14507;52.418;13.398;2023-07-20T04:43:17;17.30;99.90
26952;DHT22;14507;52.418;13.398;2023-07-20T04:45:43;17.30;99.90
26952;DHT22;14507;52.418;13.398;2023-07-20T04:48:09;17.30;99.90
26952;DHT22;14507;52.418;13.398;2023-07-20T04:50:39;17.30;99.90
26952;DHT22;14507;52.418;13.398;2023-07-20T04:53:05;17.30;99.90
26952;DHT22;14507;52.418;13.398;2023-07-20T04:55:31;17.30;99.90
26952;DHT22;14507;52.418;13.398;2023-07-20T04:58:00;17.30;99.90
26952;DHT22;14507;52.418;13.398;2023-07-20T05:00:25;17.30;99.90
26952;DHT22;14507;52.418;13.398;2023-07-20T05:02:51;17.40;99.90
26952;DHT22;14507;52.418;13.398;2023-07-20T05:05:16;17.40;99.90
26952;DHT22;14507;52.418;13.398;2023-07-20T05:07:42;17.40;99.90
26952;DHT22;14507;52.418;13.398;2023-07-20T05:10:07;17.50;99.90
26952;DHT22;14507;52.418;13.398;2023-07-20T05:12:33;17.50;99.90
26952;DHT22;14507;52.418;13.398;2023-07-20T05:14:58;17.60;99.90
26952;DHT22;14507;52.418;13.398;2023-07-20T05:17:24;17.70;99.90
26952;DHT22;14507;52.418;13.398;2023-07-20T05:19:50;17.70;99.90
26952;DHT22;14507;52.418;13.398;2023-07-20T05:22:15;17.80;99.90
26952;DHT22;14507;52.418;13.398;2023-07-20T05:24:41;17.90;99.90
26952;DHT22;14507;52.418;13.398;2023-07-20T05:27:06;18.00;99.90
26952;DHT22;14507;52.418;13.398;2023-07-20T05:29:32;18.10;99.90
26952;DHT22;14507;52.418;13.398;2023-07-20T05:31:58;18.20;99.90
26952;DHT22;14507;52.418;13.398;2023-07-20T05:34:23;18.50;99.90
26952;DHT22;14507;52.418;13.398;2023-07-20T05:36:51;18.90;99.90
26952;DHT22;14507;52.418;13.398;2023-07-20T05:39:17;19.20;99.90
26952;DHT22;14507;52.418;13.398;2023-07-20T05:41:43;19.40;99.90
26952;DHT22;14507;52.418;13.398;2023-07-20T05:44:08;19.40;99.90
26952;DHT22;14507;52.418;13.398;2023-07-20T05:46:34;19.40;99.90
26952;DHT22;14507;52.418;13.398;2023-07-20T05:48:59;19.40;99.90
26952;DHT22;14507;52.418;13.398;2023-07-20T05:51:25;19.70;99.90
26952;DHT22;14507;52.418;13.398;2023-07-20T05:53:50;20.20;99.90
26952;DHT22;14507;52.418;13.398;2023-07-20T05:56:16;20.70;99.90
26952;DHT22;14507;52.418;13.398;2023-07-20T05:58:42;21.00;99.90
26952;DHT22;14507;52.418;13.398;2023-07-20T06:01:07;21.20;99.90
26952;DHT22;14507;52.418;13.398;2023-07-20T06:03:33;21.10;99.90
26952;DHT22;14507;52.418;13.398;2023-07-20T06:06:01;20.90;99.90
26952;DHT22;14507;52.418;13.398;2023-07-20T06:08:28;20.70;99.90
26952;DHT22;14507;52.418;13.398;2023-07-20T06:10:53;20.60;99.90
26952;DHT22;14507;52.418;13.398;2023-07-20T06:13:19;20.40;99.90
26952;DHT22;14507;52.418;13.398;2023-07-20T06:15:44;20.30;99.90
26952;DHT22;14507;52.418;13.398;2023-07-20T06:18:10;20.10;99.90
26952;DHT22;14507;52.418;13.398;2023-07-20T06:20:35;20.00;99.90
26952;DHT22;14507;52.418;13.398;2023-07-20T06:23:01;20.00;99.90
26952;DHT22;14507;52.418;13.398;2023-07-20T06:25:26;20.10;99.90
26952;DHT22;14507;52.418;13.398;2023-07-20T06:27:52;20.20;99.90
26952;DHT22;14507;52.418;13.398;2023-07-20T06:30:18;20.20;99.90
26952;DHT22;14507;52.418;13.398;2023-07-20T06:32:43;20.30;99.90
26952;DHT22;14507;52.418;13.398;2023-07-20T06:35:09;20.20;99.90
26952;DHT22;14507;52.418;13.398;2023-07-20T06:37:35;20.20;99.90
26952;DHT22;14507;52.418;13.398;2023-07-20T06:40:01;20.10;99.90
26952;DHT22;14507;52.418;13.398;2023-07-20T06:42:27;19.90;99.90
26952;DHT22;14507;52.418;13.398;2023-07-20T06:44:52;19.80;99.90
26952;DHT22;14507;52.418;13.398;2023-07-20T06:47:18;19.60;99.90
26952;DHT22;14507;52.418;13.398;2023-07-20T06:49:43;19.60;99.90
26952;DHT22;14507;52.418;13.398;2023-07-20T06:52:09;19.70;99.90
26952;DHT22;14507;52.418;13.398;2023-07-20T06:54:34;19.90;99.90
26952;DHT22;14507;52.418;13.398;2023-07-20T06:57:00;20.50;99.90
26952;DHT22;14507;52.418;13.398;2023-07-20T06:59:25;21.40;99.90
26952;DHT22;14507;52.418;13.398;2023-07-20T07:01:51;22.40;99.90
26952;DHT22;14507;52.418;13.398;2023-07-20T07:04:16;23.10;99.40
26952;DHT22;14507;52.418;13.398;2023-07-20T07:06:42;23.70;97.50
26952;DHT22;14507;52.418;13.398;2023-07-20T07:09:08;24.30;97.40
26952;DHT22;14507;52.418;13.398;2023-07-20T07:11:33;24.50;95.60
26952;DHT22;14507;52.418;13.398;2023-07-20T07:13:59;24.30;94.90
26952;DHT22;14507;52.418;13.398;2023-07-20T07:16:24;24.00;95.20
26952;DHT22;14507;52.418;13.398;2023-07-20T07:18:50;24.00;95.10
26952;DHT22;14507;52.418;13.398;2023-07-20T07:21:16;24.20;95.00
26952;DHT22;14507;52.418;13.398;2023-07-20T07:23:42;24.90;94.20
26952;DHT22;14507;52.418;13.398;2023-07-20T07:26:08;25.50;92.90
26952;DHT22;14507;52.418;13.398;2023-07-20T07:28:34;26.00;92.20
26952;DHT22;14507;52.418;13.398;2023-07-20T07:30:59;26.10;91.00
26952;DHT22;14507;52.418;13.398;2023-07-20T07:33:26;26.00;91.60
26952;DHT22;14507;52.418;13.398;2023-07-20T07:35:51;26.00;90.60
26952;DHT22;14507;52.418;13.398;2023-07-20T07:38:20;26.20;89.10
26952;DHT22;14507;52.418;13.398;2023-07-20T07:40:45;26.40;88.90
26952;DHT22;14507;52.418;13.398;2023-07-20T07:43:11;26.50;88.90
26952;DHT22;14507;52.418;13.398;2023-07-20T07:45:38;26.70;87.70
26952;DHT22;14507;52.418;13.398;2023-07-20T07:48:07;27.00;86.20
26952;DHT22;14507;52.418;13.398;2023-07-20T07:50:33;27.30;84.60
26952;DHT22;14507;52.418;13.398;2023-07-20T07:52:58;27.40;85.50
26952;DHT22;14507;52.418;13.398;2023-07-20T07:55:24;27.70;82.80
26952;DHT22;14507;52.418;13.398;2023-07-20T07:57:52;28.10;82.90
26952;DHT22;14507;52.418;13.398;2023-07-20T08:00:17;28.60;81.50
26952;DHT22;14507;52.418;13.398;2023-07-20T08:02:47;29.10;80.20
26952;DHT22;14507;52.418;13.398;2023-07-20T08:05:13;29.20;77.70
26952;DHT22;14507;52.418;13.398;2023-07-20T08:07:39;29.00;77.10
26952;DHT22;14507;52.418;13.398;2023-07-20T08:10:05;28.80;80.40
26952;DHT22;14507;52.418;13.398;2023-07-20T08:12:30;28.50;78.60
26952;DHT22;14507;52.418;13.398;2023-07-20T08:14:56;28.30;79.60
26952;DHT22;14507;52.418;13.398;2023-07-20T08:17:21;28.10;79.90
26952;DHT22;14507;52.418;13.398;2023-07-20T08:19:47;27.80;80.70
26952;DHT22;14507;52.418;13.398;2023-07-20T08:22:13;27.30;82.00
26952;DHT22;14507;52.418;13.398;2023-07-20T08:24:39;26.80;82.10
26952;DHT22;14507;52.418;13.398;2023-07-20T08:27:04;26.10;84.80
26952;DHT22;14507;52.418;13.398;2023-07-20T08:29:30;25.50;85.60
26952;DHT22;14507;52.418;13.398;2023-07-20T08:31:56;25.20;86.80
26952;DHT22;14507;52.418;13.398;2023-07-20T08:34:21;25.00;86.80
26952;DHT22;14507;52.418;13.398;2023-07-20T08:36:47;24.80;85.80
26952;DHT22;14507;52.418;13.398;2023-07-20T08:39:12;24.60;87.70
26952;DHT22;14507;52.418;13.398;2023-07-20T08:41:38;24.50;87.10
26952;DHT22;14507;52.418;13.398;2023-07-20T08:44:04;24.60;88.30
26952;DHT22;14507;52.418;13.398;2023-07-20T08:46:30;24.80;88.00
26952;DHT22;14507;52.418;13.398;2023-07-20T08:48:56;25.00;86.60
26952;DHT22;14507;52.418;13.398;2023-07-20T08:51:22;25.10;85.90
26952;DHT22;14507;52.418;13.398;2023-07-20T08:53:48;24.90;86.20
26952;DHT22;14507;52.418;13.398;2023-07-20T08:56:15;24.80;87.70
26952;DHT22;14507;52.418;13.398;2023-07-20T08:58:42;24.90;86.70
26952;DHT22;14507;52.418;13.398;2023-07-20T09:01:08;25.20;85.30
26952;DHT22;14507;52.418;13.398;2023-07-20T09:03:34;25.20;86.90
26952;DHT22;14507;52.418;13.398;2023-07-20T09:05:59;25.40;86.00
26952;DHT22;14507;52.418;13.398;2023-07-20T09:08:25;25.80;84.10
26952;DHT22;14507;52.418;13.398;2023-07-20T09:10:50;25.80;84.00
26952;DHT22;14507;52.418;13.398;2023-07-20T09:13:16;25.60;83.10
26952;DHT22;14507;52.418;13.398;2023-07-20T09:15:48;25.40;82.40
26952;DHT22;14507;52.418;13.398;2023-07-20T09:18:27;25.40;84.30
26952;DHT22;14507;52.418;13.398;2023-07-20T09:20:57;25.70;84.60
26952;DHT22;14507;52.418;13.398;2023-07-20T09:23:35;25.90;83.20
26952;DHT22;14507;52.418;13.398;2023-07-20T09:26:00;25.70;83.80
26952;DHT22;14507;52.418;13.398;2023-07-20T09:28:26;25.60;82.50
26952;DHT22;14507;52.418;13.398;2023-07-20T09:30:53;25.70;83.60
26952;DHT22;14507;52.418;13.398;2023-07-20T09:33:21;25.90;84.10
26952;DHT22;14507;52.418;13.398;2023-07-20T09:35:46;26.20;81.50
26952;DHT22;14507;52.418;13.398;2023-07-20T09:38:12;26.30;80.10
26952;DHT22;14507;52.418;13.398;2023-07-20T09:40:39;26.20;80.30
26952;DHT22;14507;52.418;13.398;2023-07-20T09:43:07;26.00;80.10
26952;DHT22;14507;52.418;13.398;2023-07-20T09:45:33;25.90;79.10
26952;DHT22;14507;52.418;13.398;2023-07-20T09:48:05;26.00;82.00
26952;DHT22;14507;52.418;13.398;2023-07-20T09:50:32;26.00;83.20
26952;DHT22;14507;52.418;13.398;2023-07-20T09:52:58;26.10;82.60
26952;DHT22;14507;52.418;13.398;2023-07-20T09:55:25;26.20;83.10
26952;DHT22;14507;52.418;13.398;2023-07-20T09:57:51;26.20;82.50
26952;DHT22;14507;52.418;13.398;2023-07-20T10:00:18;26.40;83.00
26952;DHT22;14507;52.418;13.398;2023-07-20T10:02:44;26.60;80.60
26952;DHT22;14507;52.418;13.398;2023-07-20T10:05:11;26.50;80.80
26952;DHT22;14507;52.418;13.398;2023-07-20T10:07:39;26.30;79.40
26952;DHT22;14507;52.418;13.398;2023-07-20T10:10:05;26.10;79.00
26952;DHT22;14507;52.418;13.398;2023-07-20T10:12:33;25.90;78.50
26952;DHT22;14507;52.418;13.398;2023-07-20T10:14:59;25.60;81.00
26952;DHT22;14507;52.418;13.398;2023-07-20T10:17:27;25.30;80.70
26952;DHT22;14507;52.418;13.398;2023-07-20T10:19:54;25.10;81.40
26952;DHT22;14507;52.418;13.398;2023-07-20T10:22:25;24.90;82.10
26952;DHT22;14507;52.418;13.398;2023-07-20T10:24:51;24.80;83.60
26952;DHT22;14507;52.418;13.398;2023-07-20T10:27:19;24.70;82.60
26952;DHT22;14507;52.418;13.398;2023-07-20T10:29:45;24.60;83.10
26952;DHT22;14507;52.418;13.398;2023-07-20T10:32:11;24.60;83.70
26952;DHT22;14507;52.418;13.398;2023-07-20T10:34:37;24.60;83.00
26952;DHT22;14507;52.418;13.398;2023-07-20T10:37:02;24.80;83.10
26952;DHT22;14507;52.418;13.398;2023-07-20T10:39:28;24.90;82.80
26952;DHT22;14507;52.418;13.398;2023-07-20T10:41:59;25.30;82.50
26952;DHT22;14507;52.418;13.398;2023-07-20T10:44:25;25.50;83.60
26952;DHT22;14507;52.418;13.398;2023-07-20T10:46:50;25.60;82.30
26952;DHT22;14507;52.418;13.398;2023-07-20T10:49:23;25.70;82.70
26952;DHT22;14507;52.418;13.398;2023-07-20T10:51:56;25.60;82.10
26952;DHT22;14507;52.418;13.398;2023-07-20T10:56:50;25.30;83.20
26952;DHT22;14507;52.418;13.398;2023-07-20T11:01:56;24.80;84.10
26952;DHT22;14507;52.418;13.398;2023-07-20T11:04:42;24.60;84.20
26952;DHT22;14507;52.418;13.398;2023-07-20T11:07:08;24.40;85.30
26952;DHT22;14507;52.418;13.398;2023-07-20T11:09:34;24.20;86.50
26952;DHT22;14507;52.418;13.398;2023-07-20T11:12:12;24.10;86.60
26952;DHT22;14507;52.418;13.398;2023-07-20T11:14:54;23.90;86.10
26952;DHT22;14507;52.418;13.398;2023-07-20T11:17:22;23.90;86.90
26952;DHT22;14507;52.418;13.398;2023-07-20T11:19:55;23.70;87.40
26952;DHT22;14507;52.418;13.398;2023-07-20T11:22:21;23.50;87.70
26952;DHT22;14507;52.418;13.398;2023-07-20T11:24:46;23.40;89.70
26952;DHT22;14507;52.418;13.398;2023-07-20T11:27:13;23.40;89.50
26952;DHT22;14507;52.418;13.398;2023-07-20T11:29:39;23.40;88.30
26952;DHT22;14507;52.418;13.398;2023-07-20T11:32:05;23.40;88.80
26952;DHT22;14507;52.418;13.398;2023-07-20T11:34:31;23.30;88.70
26952;DHT22;14507;52.418;13.398;2023-07-20T11:36:57;23.20;90.20
26952;DHT22;14507;52.418;13.398;2023-07-20T11:39:23;23.20;90.00
26952;DHT22;14507;52.418;13.398;2023-07-20T11:41:51;23.00;87.70
26952;DHT22;14507;52.418;13.398;2023-07-20T11:44:17;23.00;89.30
26952;DHT22;14507;52.418;13.398;2023-07-20T11:46:43;22.90;89.80
26952;DHT22;14507;52.418;13.398;2023-07-20T11:49:12;22.90;90.20
26952;DHT22;14507;52.418;13.398;2023-07-20T11:51:37;22.90;90.90
26952;DHT22;14507;52.418;13.398;2023-07-20T11:54:04;22.90;91.30
26952;DHT22;14507;52.418;13.398;2023-07-20T11:56:30;23.10;91.70
26952;DHT22;14507;52.418;13.398;2023-07-20T11:58:59;23.30;90.80
26952;DHT22;14507;52.418;13.398;2023-07-20T12:01:27;23.40;90.50
26952;DHT22;14507;52.418;13.398;2023-07-20T12:04:03;23.60;90.80
26952;DHT22;14507;52.418;13.398;2023-07-20T12:06:29;23.70;90.50
26952;DHT22;14507;52.418;13.398;2023-07-20T12:08:56;23.80;88.90
26952;DHT22;14507;52.418;13.398;2023-07-20T12:11:34;23.80;89.20
26952;DHT22;14507;52.418;13.398;2023-07-20T12:14:01;23.90;87.40
26952;DHT22;14507;52.418;13.398;2023-07-20T12:16:29;24.00;88.60
26952;DHT22;14507;52.418;13.398;2023-07-20T12:19:04;24.00;89.30
26952;DHT22;14507;52.418;13.398;2023-07-20T12:21:30;24.00;88.50
26952;DHT22;14507;52.418;13.398;2023-07-20T12:23:56;23.90;87.40
26952;DHT22;14507;52.418;13.398;2023-07-20T12:26:23;23.90;87.10
26952;DHT22;14507;52.418;13.398;2023-07-20T12:28:49;23.80;88.70
26952;DHT22;14507;52.418;13.398;2023-07-20T12:31:14;23.80;88.50
26952;DHT22;14507;52.418;13.398;2023-07-20T12:33:40;23.80;88.30
26952;DHT22;14507;52.418;13.398;2023-07-20T12:36:06;23.70;86.30
26952;DHT22;14507;52.418;13.398;2023-07-20T12:38:32;23.60;87.90
26952;DHT22;14507;52.418;13.398;2023-07-20T12:40:57;23.50;87.90
26952;DHT22;14507;52.418;13.398;2023-07-20T12:43:24;23.40;87.50
26952;DHT22;14507;52.418;13.398;2023-07-20T12:45:49;23.40;88.60
26952;DHT22;14507;52.418;13.398;2023-07-20T12:48:15;23.40;87.90
26952;DHT22;14507;52.418;13.398;2023-07-20T12:50:40;23.40;88.50
26952;DHT22;14507;52.418;13.398;2023-07-20T12:53:07;23.60;87.50
26952;DHT22;14507;52.418;13.398;2023-07-20T12:55:32;23.60;86.10
26952;DHT22;14507;52.418;13.398;2023-07-20T12:57:58;23.70;87.00
26952;DHT22;14507;52.418;13.398;2023-07-20T13:00:23;23.80;86.80
26952;DHT22;14507;52.418;13.398;2023-07-20T13:02:49;23.80;87.30
26952;DHT22;14507;52.418;13.398;2023-07-20T13:05:15;24.00;87.10
26952;DHT22;14507;52.418;13.398;2023-07-20T13:07:41;24.20;85.70
26952;DHT22;14507;52.418;13.398;2023-07-20T13:10:07;24.30;83.60
26952;DHT22;14507;52.418;13.398;2023-07-20T13:12:34;24.40;82.80
26952;DHT22;14507;52.418;13.398;2023-07-20T13:15:00;24.30;83.50
26952;DHT22;14507;52.418;13.398;2023-07-20T13:17:29;24.20;81.70
26952;DHT22;14507;52.418;13.398;2023-07-20T13:19:55;24.10;80.80
26952;DHT22;14507;52.418;13.398;2023-07-20T13:22:20;24.10;81.20
26952;DHT22;14507;52.418;13.398;2023-07-20T13:24:46;24.10;81.50
26952;DHT22;14507;52.418;13.398;2023-07-20T13:27:14;24.10;80.60
26952;DHT22;14507;52.418;13.398;2023-07-20T13:29:40;24.10;79.60
26952;DHT22;14507;52.418;13.398;2023-07-20T13:32:06;24.10;82.40
26952;DHT22;14507;52.418;13.398;2023-07-20T13:34:32;24.10;82.70
26952;DHT22;14507;52.418;13.398;2023-07-20T13:36:58;24.10;82.20
26952;DHT22;14507;52.418;13.398;2023-07-20T13:39:24;24.20;79.40
26952;DHT22;14507;52.418;13.398;2023-07-20T13:41:51;24.20;78.30
26952;DHT22;14507;52.418;13.398;2023-07-20T13:44:16;24.20;77.90
26952;DHT22;14507;52.418;13.398;2023-07-20T13:46:42;24.40;79.00
26952;DHT22;14507;52.418;13.398;2023-07-20T13:49:07;24.40;77.80
26952;DHT22;14507;52.418;13.398;2023-07-20T13:51:33;24.30;78.70
26952;DHT22;14507;52.418;13.398;2023-07-20T13:53:59;24.40;78.10
26952;DHT22;14507;52.418;13.398;2023-07-20T13:56:24;24.50;78.00
26952;DHT22;14507;52.418;13.398;2023-07-20T13:58:50;24.50;78.10
26952;DHT22;14507;52.418;13.398;2023-07-20T14:01:16;24.50;77.80
26952;DHT22;14507;52.418;13.398;2023-07-20T14:03:43;24.50;79.70
26952;DHT22;14507;52.418;13.398;2023-07-20T14:06:08;24.60;77.90
26952;DHT22;14507;52.418;13.398;2023-07-20T14:08:34;24.50;77.60
26952;DHT22;14507;52.418;13.398;2023-07-20T14:11:00;24.50;77.90
26952;DHT22;14507;52.418;13.398;2023-07-20T14:13:25;24.40;75.20
26952;DHT22;14507;52.418;13.398;2023-07-20T14:15:50;24.20;77.10
26952;DHT22;14507;52.418;13.398;2023-07-20T14:18:16;24.20;78.20
26952;DHT22;14507;52.418;13.398;2023-07-20T14:20:42;24.20;74.00
26952;DHT22;14507;52.418;13.398;2023-07-20T14:23:07;24.20;74.60
26952;DHT22;14507;52.418;13.398;2023-07-20T14:25:33;24.30;76.20
26952;DHT22;14507;52.418;13.398;2023-07-20T14:27:59;24.30;75.30
26952;DHT22;14507;52.418;13.398;2023-07-20T14:30:24;24.30;75.80
26952;DHT22;14507;52.418;13.398;2023-07-20T14:32:50;24.20;77.40
26952;DHT22;14507;52.418;13.398;2023-07-20T14:35:16;24.10;77.30
26952;DHT22;14507;52.418;13.398;2023-07-20T14:37:41;24.20;75.20
26952;DHT22;14507;52.418;13.398;2023-07-20T14:40:07;24.20;74.40
26952;DHT22;14507;52.418;13.398;2023-07-20T14:42:33;24.30;74.10
26952;DHT22;14507;52.418;13.398;2023-07-20T14:45:01;24.30;72.90
26952;DHT22;14507;52.418;13.398;2023-07-20T14:47:28;24.30;75.00
26952;DHT22;14507;52.418;13.398;2023-07-20T14:49:53;24.30;74.60
26952;DHT22;14507;52.418;13.398;2023-07-20T14:52:18;24.30;73.30
26952;DHT22;14507;52.418;13.398;2023-07-20T14:54:44;24.20;72.80
26952;DHT22;14507;52.418;13.398;2023-07-20T14:57:09;24.20;73.80
26952;DHT22;14507;52.418;13.398;2023-07-20T14:59:39;24.10;73.60
26952;DHT22;14507;52.418;13.398;2023-07-20T15:02:06;24.10;74.70
26952;DHT22;14507;52.418;13.398;2023-07-20T15:04:31;24.10;72.40
26952;DHT22;14507;52.418;13.398;2023-07-20T15:06:57;24.10;71.50
26952;DHT22;14507;52.418;13.398;2023-07-20T15:09:22;24.10;71.00
26952;DHT22;14507;52.418;13.398;2023-07-20T15:11:48;24.10;72.40
26952;DHT22;14507;52.418;13.398;2023-07-20T15:14:13;24.10;72.50
26952;DHT22;14507;52.418;13.398;2023-07-20T15:16:41;24.10;71.10
26952;DHT22;14507;52.418;13.398;2023-07-20T15:19:08;24.00;73.40
26952;DHT22;14507;52.418;13.398;2023-07-20T15:21:34;24.10;72.90